createdAt,value
2023-04-10T00:02:13.387Z,9.80
2023-04-10T00:04:43.008Z,9.80
2023-04-10T00:07:11.218Z,9.90
2023-04-10T00:09:39.467Z,10.30
2023-04-10T00:12:07.772Z,10.80
2023-04-10T00:14:35.852Z,11.30
2023-04-10T00:17:03.965Z,11.80
2023-04-10T00:19:32.025Z,12.00
2023-04-10T00:22:01.464Z,12.20
2023-04-10T00:24:29.569Z,12.10
2023-04-10T00:26:58.107Z,12.00
2023-04-10T00:29:26.332Z,11.80
2023-04-10T00:31:54.458Z,11.70
2023-04-10T00:34:22.537Z,11.50
2023-04-10T00:36:50.601Z,11.30
2023-04-10T00:39:21.025Z,11.10
2023-04-10T00:41:49.051Z,11.00
2023-04-10T00:44:17.595Z,10.80
2023-04-10T00:46:45.737Z,10.70
2023-04-10T00:49:14.096Z,10.50
2023-04-10T00:51:43.736Z,10.40
2023-04-10T00:54:13.018Z,10.20
2023-04-10T00:56:42.629Z,10.10
2023-04-10T00:59:10.901Z,10.00
2023-04-10T01:01:39.027Z,10.00
2023-04-10T01:11:54.759Z,9.70
2023-04-10T01:14:32.146Z,9.60
2023-04-10T01:17:05.662Z,9.50
2023-04-10T01:23:48.188Z,9.40
2023-04-10T01:30:03.847Z,9.20
2023-04-10T01:32:35.519Z,9.20
2023-04-10T01:35:08.743Z,9.10
2023-04-10T01:37:41.034Z,9.10
2023-04-10T01:40:11.934Z,9.00
2023-04-10T01:42:45.782Z,9.00
2023-04-10T01:45:19.554Z,9.00
2023-04-10T01:47:48.131Z,8.90
2023-04-10T01:50:17.449Z,8.90
2023-04-10T01:52:46.296Z,8.90
2023-04-10T01:55:15.018Z,8.90
2023-04-10T01:57:43.220Z,8.90
2023-04-10T02:00:12.436Z,8.90
2023-04-10T02:02:42.836Z,8.90
2023-04-10T02:05:11.881Z,8.80
2023-04-10T02:07:46.978Z,8.80
2023-04-10T02:10:21.414Z,8.80
2023-04-10T02:12:54.046Z,8.80
2023-04-10T02:15:24.385Z,8.80
2023-04-10T02:17:56.046Z,8.80
2023-04-10T02:20:25.691Z,8.80
2023-04-10T02:22:54.558Z,8.70
2023-04-10T02:25:22.678Z,8.70
2023-04-10T02:27:50.774Z,8.70
2023-04-10T02:30:18.853Z,8.70
2023-04-10T02:32:47.108Z,8.70
2023-04-10T02:35:16.654Z,8.60
2023-04-10T02:37:46.604Z,8.60
2023-04-10T02:40:14.659Z,8.60
2023-04-10T02:42:42.685Z,8.60
2023-04-10T02:45:11.477Z,8.60
2023-04-10T02:47:39.523Z,8.60
2023-04-10T02:50:08.234Z,8.50
2023-04-10T02:52:37.724Z,8.50
2023-04-10T02:55:06.622Z,8.50
2023-04-10T02:57:35.544Z,8.50
2023-04-10T03:00:04.649Z,8.50
2023-04-10T03:02:32.976Z,8.50
2023-04-10T03:05:02.346Z,8.40
2023-04-10T03:07:32.237Z,8.40
2023-04-10T03:10:01.704Z,8.40
2023-04-10T03:12:29.736Z,8.40
2023-04-10T03:14:57.792Z,8.40
2023-04-10T03:17:25.918Z,8.30
2023-04-10T03:19:53.951Z,8.30
2023-04-10T03:22:21.973Z,8.40
2023-04-10T03:24:50.012Z,8.40
2023-04-10T03:27:19.750Z,8.40
2023-04-10T03:29:47.797Z,8.40
2023-04-10T03:32:15.859Z,8.40
2023-04-10T03:34:43.898Z,8.40
2023-04-10T03:37:11.943Z,8.40
2023-04-10T03:39:40.200Z,8.30
2023-04-10T03:42:08.234Z,8.40
2023-04-10T03:44:37.987Z,8.40
2023-04-10T03:47:06.118Z,8.30
2023-04-10T03:49:34.219Z,8.40
2023-04-10T03:52:02.426Z,8.40
2023-04-10T03:54:30.493Z,8.40
2023-04-10T03:56:58.524Z,8.40
2023-04-10T03:59:37.752Z,8.40
2023-04-10T04:02:08.474Z,8.40
2023-04-10T04:04:36.799Z,8.30
2023-04-10T04:07:04.908Z,8.30
2023-04-10T04:09:32.975Z,8.30
2023-04-10T04:12:00.987Z,8.30
2023-04-10T04:14:29.097Z,8.30
2023-04-10T04:16:57.219Z,8.30
2023-04-10T04:19:26.938Z,8.30
2023-04-10T04:21:54.968Z,8.30
2023-04-10T04:24:23.039Z,8.30
2023-04-10T04:26:51.089Z,8.20
2023-04-10T04:29:19.112Z,8.20
2023-04-10T04:31:47.209Z,8.20
2023-04-10T04:34:16.473Z,8.20
2023-04-10T04:36:45.898Z,8.20
2023-04-10T04:39:13.980Z,8.20
2023-04-10T04:41:42.013Z,8.20
2023-04-10T04:44:10.710Z,8.20
2023-04-10T04:46:38.742Z,8.20
2023-04-10T04:49:06.757Z,8.20
2023-04-10T04:51:35.908Z,8.20
2023-04-10T04:54:05.461Z,8.20
2023-04-10T04:56:33.536Z,8.20
2023-04-10T04:59:01.611Z,8.20
2023-04-10T05:01:29.673Z,8.10
2023-04-10T05:03:57.801Z,8.10
2023-04-10T05:06:26.256Z,8.10
2023-04-10T05:08:54.501Z,8.10
2023-04-10T05:11:24.073Z,8.10
2023-04-10T05:13:52.114Z,8.20
2023-04-10T05:16:20.244Z,8.20
2023-04-10T05:18:48.440Z,8.20
2023-04-10T05:21:16.767Z,8.20
2023-04-10T05:23:44.805Z,8.20
2023-04-10T05:26:12.846Z,8.30
2023-04-10T05:28:42.283Z,8.30
2023-04-10T05:31:10.324Z,8.30
2023-04-10T05:33:38.379Z,8.40
2023-04-10T05:36:07.123Z,8.30
2023-04-10T05:38:35.830Z,8.40
2023-04-10T05:41:03.913Z,8.40
2023-04-10T05:43:32.052Z,8.50
2023-04-10T05:46:01.581Z,8.50
2023-04-10T05:48:29.704Z,8.50
2023-04-10T05:50:57.750Z,8.50
2023-04-10T05:53:31.246Z,8.60
2023-04-10T05:55:59.746Z,8.60
2023-04-10T05:58:28.051Z,8.70
2023-04-10T06:00:56.395Z,8.70
2023-04-10T06:03:27.593Z,8.80
2023-04-10T06:05:56.074Z,8.90
2023-04-10T06:08:24.138Z,8.90
2023-04-10T06:10:52.190Z,9.00
2023-04-10T06:13:20.357Z,9.10
2023-04-10T06:15:48.425Z,9.10
2023-04-10T06:18:16.482Z,9.20
2023-04-10T06:20:46.012Z,9.30
2023-04-10T06:23:14.726Z,9.40
2023-04-10T06:25:42.910Z,9.60
2023-04-10T06:28:10.984Z,9.70
2023-04-10T06:30:39.227Z,9.80
2023-04-10T06:33:07.268Z,9.90
2023-04-10T06:35:35.949Z,10.00
2023-04-10T06:38:05.889Z,10.10
2023-04-10T06:40:34.212Z,10.30
2023-04-10T06:43:02.344Z,10.40
2023-04-10T06:45:30.452Z,10.40
2023-04-10T06:47:58.605Z,10.60
2023-04-10T06:50:26.786Z,10.70
2023-04-10T06:52:56.358Z,10.70
2023-04-10T06:55:25.744Z,10.90
2023-04-10T06:57:54.990Z,11.00
2023-04-10T07:00:23.691Z,11.10
2023-04-10T07:02:51.792Z,11.20
2023-04-10T07:05:20.003Z,11.30
2023-04-10T07:07:50.519Z,11.40
2023-04-10T07:10:18.603Z,11.50
2023-04-10T07:12:48.123Z,11.60
2023-04-10T07:15:16.300Z,11.60
2023-04-10T07:17:44.636Z,11.70
2023-04-10T07:20:13.326Z,11.80
2023-04-10T07:22:41.370Z,11.90
2023-04-10T07:25:10.420Z,11.90
2023-04-10T07:27:38.490Z,12.00
2023-04-10T07:30:10.088Z,12.00
2023-04-10T07:32:39.906Z,12.10
2023-04-10T07:35:09.015Z,12.20
2023-04-10T07:37:37.085Z,12.20
2023-04-10T07:40:05.501Z,12.30
2023-04-10T07:42:33.526Z,12.40
2023-04-10T07:45:01.593Z,12.50
2023-04-10T07:47:31.201Z,12.60
2023-04-10T07:49:59.266Z,12.60
2023-04-10T07:52:27.325Z,12.70
2023-04-10T07:54:55.360Z,12.80
2023-04-10T07:57:24.532Z,12.80
2023-04-10T07:59:52.574Z,12.90
2023-04-10T08:02:20.934Z,12.90
2023-04-10T08:04:50.667Z,13.00
2023-04-10T08:07:19.879Z,13.10
2023-04-10T08:09:47.904Z,13.20
2023-04-10T08:12:16.143Z,13.20
2023-04-10T08:14:45.250Z,13.30
2023-04-10T08:17:14.941Z,13.40
2023-04-10T08:19:43.515Z,13.50
2023-04-10T08:22:13.140Z,13.60
2023-04-10T08:24:41.176Z,13.70
2023-04-10T08:27:09.232Z,13.80
2023-04-10T08:29:37.270Z,13.90
2023-04-10T08:32:05.768Z,13.90
2023-04-10T08:34:33.815Z,14.00
2023-04-10T08:37:01.834Z,14.10
2023-04-10T08:39:31.260Z,14.20
2023-04-10T08:41:59.305Z,14.30
2023-04-10T08:44:27.368Z,14.40
2023-04-10T08:47:00.125Z,14.50
2023-04-10T08:49:33.639Z,14.60
2023-04-10T08:52:04.376Z,14.60
2023-04-10T08:54:35.696Z,14.70
2023-04-10T08:57:04.838Z,14.80
2023-04-10T08:59:33.218Z,14.90
2023-04-10T09:02:01.448Z,14.90
2023-04-10T09:04:29.620Z,15.00
2023-04-10T09:06:57.749Z,15.00
2023-04-10T09:09:25.793Z,15.10
2023-04-10T09:12:03.975Z,15.10
2023-04-10T09:14:33.396Z,15.20
2023-04-10T09:17:25.632Z,15.30
2023-04-10T09:19:54.263Z,15.40
2023-04-10T09:22:32.019Z,15.40
2023-04-10T09:25:01.272Z,15.50
2023-04-10T09:27:32.523Z,15.50
2023-04-10T09:30:00.952Z,15.60
2023-04-10T09:32:38.881Z,15.70
2023-04-10T09:35:08.626Z,15.70
2023-04-10T09:37:37.477Z,15.80
2023-04-10T09:40:07.123Z,15.80
2023-04-10T09:42:38.105Z,15.90
2023-04-10T09:45:07.123Z,16.00
2023-04-10T09:47:35.230Z,16.00
2023-04-10T09:50:03.364Z,16.10
2023-04-10T09:52:33.279Z,16.10
2023-04-10T09:55:03.685Z,16.20
2023-04-10T09:57:33.236Z,16.30
2023-04-10T10:00:05.205Z,16.30
2023-04-10T10:02:39.041Z,16.40
2023-04-10T10:05:09.104Z,16.40
2023-04-10T10:07:38.081Z,16.40
2023-04-10T10:10:09.019Z,16.50
2023-04-10T10:12:45.588Z,16.50
2023-04-10T10:15:20.777Z,16.50
2023-04-10T10:17:58.338Z,16.60
2023-04-10T10:20:27.446Z,16.60
2023-04-10T10:22:57.584Z,16.60
2023-04-10T10:25:26.406Z,16.70
2023-04-10T10:27:56.050Z,16.70
2023-04-10T10:30:30.008Z,16.70
2023-04-10T10:33:00.134Z,16.80
2023-04-10T10:35:30.064Z,16.80
2023-04-10T10:38:00.380Z,16.90
2023-04-10T10:40:32.641Z,16.90
2023-04-10T10:43:09.790Z,17.00
2023-04-10T10:45:53.471Z,17.00
2023-04-10T10:48:21.554Z,17.10
2023-04-10T10:50:56.258Z,17.10
2023-04-10T10:53:33.807Z,17.20
2023-04-10T10:56:35.477Z,17.20
2023-04-10T10:59:03.521Z,17.30
2023-04-10T11:01:33.138Z,17.30
2023-04-10T11:04:01.453Z,17.40
2023-04-10T11:06:52.310Z,17.40
2023-04-10T11:09:46.410Z,17.40
2023-04-10T11:12:14.502Z,17.40
2023-04-10T11:14:43.903Z,17.50
2023-04-10T11:17:13.603Z,17.40
2023-04-10T11:20:01.855Z,17.40
2023-04-10T11:22:29.968Z,17.40
2023-04-10T11:25:02.671Z,17.40
2023-04-10T11:27:41.723Z,17.50
2023-04-10T11:30:32.160Z,17.50
2023-04-10T11:33:03.807Z,17.50
2023-04-10T11:35:33.434Z,17.60
2023-04-10T11:38:16.049Z,17.60
2023-04-10T11:41:03.914Z,17.60
2023-04-10T11:43:32.481Z,17.60
2023-04-10T11:46:05.289Z,17.70
2023-04-10T11:48:35.154Z,17.70
2023-04-10T11:51:10.469Z,17.80
2023-04-10T11:53:38.875Z,17.80
2023-04-10T11:56:08.721Z,17.90
2023-04-10T11:58:36.997Z,18.00
2023-04-10T12:01:06.711Z,18.00
2023-04-10T12:03:41.716Z,18.10
2023-04-10T12:06:11.897Z,18.10
2023-04-10T12:08:42.374Z,18.20
2023-04-10T12:11:11.946Z,18.20
2023-04-10T12:13:40.829Z,18.20
2023-04-10T12:16:10.526Z,18.20
2023-04-10T12:18:40.684Z,18.20
2023-04-10T12:21:09.360Z,18.30
2023-04-10T12:23:40.109Z,18.30
2023-04-10T12:26:14.002Z,18.30
2023-04-10T12:28:43.134Z,18.30
2023-04-10T12:31:11.671Z,18.30
2023-04-10T12:33:41.357Z,18.30
2023-04-10T12:36:22.083Z,18.40
2023-04-10T12:38:50.333Z,18.40
2023-04-10T12:41:23.686Z,18.40
2023-04-10T12:43:53.062Z,18.40
2023-04-10T12:46:26.142Z,18.50
2023-04-10T12:48:55.954Z,18.60
2023-04-10T12:51:45.539Z,18.60
2023-04-10T12:54:27.569Z,18.60
2023-04-10T12:56:55.940Z,18.70
2023-04-10T12:59:24.709Z,18.70
2023-04-10T13:01:52.843Z,18.80
2023-04-10T13:04:22.800Z,18.80
2023-04-10T13:06:52.794Z,18.70
2023-04-10T13:09:21.127Z,18.70
2023-04-10T13:11:51.479Z,18.70
2023-04-10T13:14:20.026Z,18.80
2023-04-10T13:16:48.403Z,18.80
2023-04-10T13:19:16.777Z,18.80
2023-04-10T13:21:46.222Z,18.80
2023-04-10T13:24:16.512Z,18.80
2023-04-10T13:26:44.846Z,18.80
2023-04-10T13:29:13.083Z,18.80
2023-04-10T13:31:41.212Z,18.80
2023-04-10T13:34:09.312Z,18.80
2023-04-10T13:36:37.520Z,18.80
2023-04-10T13:39:07.114Z,18.90
2023-04-10T13:41:35.361Z,18.80
2023-04-10T13:44:03.413Z,18.80
2023-04-10T13:46:31.519Z,18.80
2023-04-10T13:48:59.918Z,18.80
2023-04-10T13:51:29.712Z,18.80
2023-04-10T13:53:58.325Z,18.80
2023-04-10T13:56:27.742Z,18.80
2023-04-10T13:58:56.038Z,18.80
2023-04-10T14:01:24.512Z,18.90
2023-04-10T14:03:52.791Z,18.90
2023-04-10T14:06:22.050Z,18.80
2023-04-10T14:08:50.111Z,18.80
2023-04-10T14:11:18.158Z,18.80
2023-04-10T14:13:47.645Z,18.80
2023-04-10T14:16:15.785Z,18.80
2023-04-10T14:18:43.869Z,18.80
2023-04-10T14:21:12.057Z,18.80
2023-04-10T14:23:40.298Z,18.80
2023-04-10T14:26:08.720Z,18.80
2023-04-10T14:28:36.907Z,18.80
2023-04-10T14:31:07.980Z,18.80
2023-04-10T14:33:36.217Z,18.70
2023-04-10T14:36:04.489Z,18.70
2023-04-10T14:38:32.550Z,18.80
2023-04-10T14:41:00.601Z,18.70
2023-04-10T14:43:28.771Z,18.70
2023-04-10T14:45:56.852Z,18.70
2023-04-10T14:48:26.441Z,18.70
2023-04-10T14:50:55.572Z,18.70
2023-04-10T14:53:24.333Z,18.60
2023-04-10T14:55:52.469Z,18.70
2023-04-10T14:58:20.575Z,18.60
2023-04-10T15:00:50.584Z,18.60
2023-04-10T15:03:18.797Z,18.60
2023-04-10T15:05:48.233Z,18.60
2023-04-10T15:08:16.338Z,18.60
2023-04-10T15:10:44.413Z,18.60
2023-04-10T15:13:12.452Z,18.60
2023-04-10T15:15:40.516Z,18.60
2023-04-10T15:18:08.634Z,18.60
2023-04-10T15:20:36.793Z,18.60
2023-04-10T15:23:06.271Z,18.60
2023-04-10T15:25:34.548Z,18.50
2023-04-10T15:28:02.734Z,18.50
2023-04-10T15:30:32.272Z,18.60
2023-04-10T15:33:00.978Z,18.50
2023-04-10T15:35:30.511Z,18.50
2023-04-10T15:37:58.742Z,18.60
2023-04-10T15:40:29.743Z,18.50
2023-04-10T15:42:58.402Z,18.60
2023-04-10T15:45:26.484Z,18.60
2023-04-10T15:47:54.567Z,18.60
2023-04-10T15:50:22.706Z,18.60
2023-04-10T15:52:50.781Z,18.60
2023-04-10T15:55:19.040Z,18.60
2023-04-10T15:57:48.524Z,18.60
2023-04-10T16:00:17.212Z,18.60
2023-04-10T16:02:45.667Z,18.60
2023-04-10T16:05:14.022Z,18.60
2023-04-10T16:07:43.650Z,18.60
2023-04-10T16:10:12.444Z,18.70
2023-04-10T16:12:40.522Z,18.70
2023-04-10T16:15:10.919Z,18.70
2023-04-10T16:17:39.619Z,18.70
2023-04-10T16:20:08.528Z,18.80
2023-04-10T16:22:37.091Z,18.80
2023-04-10T16:25:05.961Z,18.90
2023-04-10T16:27:34.067Z,18.90
2023-04-10T16:30:02.244Z,18.90
2023-04-10T16:32:32.288Z,18.90
2023-04-10T16:35:00.545Z,18.90
2023-04-10T16:37:28.644Z,18.80
2023-04-10T16:39:56.899Z,18.90
2023-04-10T16:42:24.981Z,18.80
2023-04-10T16:44:53.560Z,18.80
2023-04-10T16:47:21.626Z,18.80
2023-04-10T16:49:51.271Z,18.80
2023-04-10T16:52:19.340Z,18.80
2023-04-10T16:54:47.623Z,18.70
2023-04-10T16:57:15.689Z,18.70
2023-04-10T16:59:43.817Z,18.70
2023-04-10T17:02:12.034Z,18.70
2023-04-10T17:04:40.222Z,18.60
2023-04-10T17:07:09.754Z,18.60
2023-04-10T17:09:37.971Z,18.60
2023-04-10T17:12:06.132Z,18.60
2023-04-10T17:14:34.198Z,18.50
2023-04-10T17:17:02.321Z,18.50
2023-04-10T17:19:30.693Z,18.40
2023-04-10T17:21:58.769Z,18.40
2023-04-10T17:24:31.364Z,18.40
2023-04-10T17:27:01.009Z,18.40
2023-04-10T17:29:29.075Z,18.40
2023-04-10T17:31:57.202Z,18.30
2023-04-10T17:34:25.284Z,18.30
2023-04-10T17:36:53.541Z,18.30
2023-04-10T17:39:21.727Z,18.20
2023-04-10T17:41:51.152Z,18.20
2023-04-10T17:44:20.257Z,18.20
2023-04-10T17:46:48.317Z,18.20
2023-04-10T17:49:16.435Z,18.10
2023-04-10T17:51:44.561Z,18.10
2023-04-10T17:54:12.660Z,18.10
2023-04-10T17:56:40.814Z,18.00
2023-04-10T17:59:10.283Z,18.00
2023-04-10T18:01:38.446Z,18.00
2023-04-10T18:04:06.881Z,18.00
2023-04-10T18:06:35.152Z,18.00
2023-04-10T18:09:03.571Z,17.90
2023-04-10T18:11:31.834Z,17.90
2023-04-10T18:13:59.955Z,17.80
2023-04-10T18:16:29.798Z,17.80
2023-04-10T18:18:57.918Z,17.80
2023-04-10T18:21:27.228Z,17.80
2023-04-10T18:23:55.422Z,17.70
2023-04-10T18:26:24.426Z,17.70
2023-04-10T18:28:52.538Z,17.70
2023-04-10T18:31:20.909Z,17.70
2023-04-10T18:34:03.826Z,17.70
2023-04-10T18:36:35.066Z,17.60
2023-04-10T18:39:04.351Z,17.60
2023-04-10T18:41:32.772Z,17.60
2023-04-10T18:44:05.368Z,17.60
2023-04-10T18:46:34.067Z,17.60
2023-04-10T18:49:03.679Z,17.50
2023-04-10T18:51:34.950Z,17.50
2023-04-10T18:54:03.596Z,17.50
2023-04-10T18:56:31.753Z,17.50
2023-04-10T18:59:00.226Z,17.50
2023-04-10T19:01:28.415Z,17.50
2023-04-10T19:03:57.030Z,17.50
2023-04-10T19:06:27.076Z,17.50
2023-04-10T19:08:55.813Z,17.50
2023-04-10T19:11:23.908Z,17.50
2023-04-10T19:13:51.968Z,17.50
2023-04-10T19:16:20.503Z,17.50
2023-04-10T19:18:48.877Z,17.50
2023-04-10T19:21:16.915Z,17.50
2023-04-10T19:23:46.423Z,17.50
2023-04-10T19:26:14.533Z,17.50
2023-04-10T19:28:42.615Z,17.40
2023-04-10T19:31:10.879Z,17.40
2023-04-10T19:33:38.999Z,17.40
2023-04-10T19:36:08.600Z,17.40
2023-04-10T19:38:36.879Z,17.40
2023-04-10T19:41:14.541Z,17.40
2023-04-10T19:43:42.687Z,17.30
2023-04-10T19:46:17.628Z,17.30
2023-04-10T19:48:45.933Z,17.30
2023-04-10T19:51:14.280Z,17.30
2023-04-10T19:53:42.941Z,17.30
2023-04-10T19:56:12.383Z,17.20
2023-04-10T19:58:56.025Z,17.20
2023-04-10T20:01:24.651Z,17.20
2023-04-10T20:03:52.887Z,17.20
2023-04-10T20:06:22.563Z,17.10
2023-04-10T20:08:50.912Z,17.10
2023-04-10T20:11:20.349Z,17.10
2023-04-10T20:13:48.426Z,17.10
2023-04-10T20:16:16.581Z,17.10
2023-04-10T20:18:44.698Z,17.10
2023-04-10T20:21:12.768Z,17.10
2023-04-10T20:23:40.868Z,17.10
2023-04-10T20:26:08.925Z,17.00
2023-04-10T20:28:38.442Z,17.10
2023-04-10T20:31:06.787Z,17.00
2023-04-10T20:33:34.953Z,17.00
2023-04-10T20:36:03.097Z,17.00
2023-04-10T20:38:31.221Z,17.00
2023-04-10T20:40:59.289Z,16.90
2023-04-10T20:43:27.530Z,16.90
2023-04-10T20:45:56.968Z,16.90
2023-04-10T20:48:25.083Z,16.80
2023-04-10T20:50:53.137Z,16.80
2023-04-10T20:53:21.329Z,16.80
2023-04-10T20:55:54.019Z,16.80
2023-04-10T20:58:22.209Z,16.80
2023-04-10T21:00:52.472Z,16.70
2023-04-10T21:03:22.344Z,16.70
2023-04-10T21:05:53.267Z,16.70
2023-04-10T21:08:21.945Z,16.60
2023-04-10T21:10:50.194Z,16.50
2023-04-10T21:13:18.238Z,16.50
2023-04-10T21:15:46.319Z,16.50
2023-04-10T21:18:14.404Z,16.40
2023-04-10T21:20:44.689Z,16.40
2023-04-10T21:23:12.762Z,16.40
2023-04-10T21:25:40.824Z,16.40
2023-04-10T21:28:08.894Z,16.40
2023-04-10T21:30:36.968Z,16.40
2023-04-10T21:33:05.208Z,16.40
2023-04-10T21:35:33.371Z,16.40
2023-04-10T21:38:02.847Z,16.40
2023-04-10T21:40:34.106Z,16.40
2023-04-10T21:43:02.468Z,16.40
2023-04-10T21:45:30.766Z,16.40
2023-04-10T21:48:00.388Z,16.40
2023-04-10T21:50:28.560Z,16.40
2023-04-10T21:52:56.763Z,16.40
2023-04-10T21:55:26.241Z,16.40
2023-04-10T21:57:54.324Z,16.40
2023-04-10T22:00:23.197Z,16.30
2023-04-10T22:02:52.252Z,16.30
2023-04-10T22:05:20.565Z,16.30
2023-04-10T22:07:48.591Z,16.30
2023-04-10T22:10:16.784Z,16.30
2023-04-10T22:12:48.633Z,16.30
2023-04-10T22:15:17.801Z,16.30
2023-04-10T22:17:45.994Z,16.30
2023-04-10T22:20:14.198Z,16.30
2023-04-10T22:22:42.336Z,16.20
2023-04-10T22:25:10.727Z,16.20
2023-04-10T22:27:38.827Z,16.20
2023-04-10T22:30:10.064Z,16.20
2023-04-10T22:32:38.346Z,16.10
2023-04-10T22:35:07.772Z,16.10
2023-04-10T22:37:35.917Z,16.10
2023-04-10T22:40:04.012Z,16.10
2023-04-10T22:42:32.175Z,16.00
2023-04-10T22:45:00.323Z,16.00
2023-04-10T22:47:29.841Z,16.00
2023-04-10T22:49:57.867Z,16.00
2023-04-10T22:52:25.923Z,15.90
2023-04-10T22:54:54.008Z,15.90
2023-04-10T22:57:22.049Z,15.90
2023-04-10T22:59:50.092Z,15.80
2023-04-10T23:02:18.398Z,15.80
2023-04-10T23:04:47.955Z,15.80
2023-04-10T23:07:16.228Z,15.70
2023-04-10T23:09:44.313Z,15.60
2023-04-10T23:12:12.376Z,15.60
2023-04-10T23:14:40.437Z,15.50
2023-04-10T23:17:08.470Z,15.50
2023-04-10T23:19:36.530Z,15.40
2023-04-10T23:22:06.040Z,15.30
2023-04-10T23:24:34.100Z,15.20
2023-04-10T23:27:02.236Z,15.10
2023-04-10T23:29:30.851Z,15.00
2023-04-10T23:31:58.868Z,14.80
2023-04-10T23:34:27.552Z,14.80
2023-04-10T23:36:55.816Z,14.70
2023-04-10T23:39:25.416Z,14.60
2023-04-10T23:41:53.536Z,14.50
2023-04-10T23:44:21.602Z,14.50
2023-04-10T23:46:50.710Z,14.40
2023-04-10T23:49:19.098Z,14.30
2023-04-10T23:51:47.178Z,14.30
2023-04-10T23:54:15.673Z,14.20
2023-04-10T23:56:45.130Z,14.20
2023-04-10T23:59:16.840Z,14.20
